메인 페이지
METAR-TAF:

METAR-TAF

공항 :

콘셉시온, 칠레

위도: 36-46S, 경도: 073-03W, 고도: 12m

현재 날씨관측

예보는 34분 전, 10:00시(UTC)에 발표되었습니다.
무풍
온도 10°C
습도 93%
기압 1019 hPa
시정: 1500m
고도 900ft 상공 흐림
박무,

METAR: SCIE 301000Z 00000KT 1500 BR OVC009 10/09 Q1019

시각: 06:34 (10:34 UTC)

예보

예보는 6 시간 34분 전, 04:00시(UTC)에 발표되었습니다.
예보 대상 시간: 30일 06시부터 31일 06시까지 (UTC)
남동5kt
시정: 6000m
고도 800ft 상공 구름 조금
고도 2000ft 상공 구름 보통
일시적
30일 08시부터 30일 12시까지 (UTC)
여러 방향의 바람 2kt
시정: 2000m
고도 200ft 상공 흐림
박무
전환 중
30일 15시부터 30일 17시까지 (UTC)
서북서7kt
시정 10km 이상
고도 1200ft 상공 구름 많음
고도 2000ft 상공 흐림
전환 중
30일 22시부터 31일 00시까지 (UTC)
4kt
고도 800ft 상공 구름 보통
고도 2000ft 상공 구름 많음
일시적
31일 03시부터 31일 06시까지 (UTC)
시정: 5000m
고도 500ft 상공 흐림
박무,

TAF: SCIE 300400Z 3006/3106 14005KT 6000 FEW008 SCT020 TX15/3019Z TN09/3010Z TEMPO 3008/3012 VRB02KT 2000 BR OVC002 BECMG 3015/3017 30007KT 9999 BKN012 OVC020 BECMG 3022/3100 10004KT SCT008 BKN020 TEMPO 3103/3106 5000 BR OVC005

4,000개 이상의 공항 관측 자료 및 예보 (METAR 및 TAF 보고).

지도상에서 검색 가능한 기상관측소가 노란 점과 빨간 점으로 표시되어 있습니다.

기상관측소 명을 보려면 표시 위로 마우스를 이동하세요.

날씨 관측과 예보를 보려면 클릭하세요.

지도 변경 : 확대하려면 엑스 표시가 있는 녹색 버튼, 축소하려면 빼기 표시가 있는 녹색 버튼, 다음 페이지의 지도를 보려면 녹색 화살표를 클릭하세요.


METAR-TAF: